Plaucheville, LA (71362)

8:36 AM CDT on September 01, 2015 (GMT -0500)
WILLIAM GUILLORY RD. | | Change Station
CLOSE
Current Station
Personal Weather Station
Location: Plaucheville, LA
Elevation: 43 ft
Nearby Weather Stations

Elev 43 ft 30.94 °N, 91.97 °W | Updated 22 seconds ago

Partly Cloudy
Partly Cloudy
74.3 °F
Feels Like 71 °F
N
1.1
Wind Variable Wind from East
Gusts 1.1 mph

Today
High -- | Low -- °F
--% Chance of Precip.
Yesterday
High -- | Low -- °F
Precip. -- in
6:44 AM 7:31 PM
Waning Gibbous, 89% visible
Pressure 30.07 in
Visibility 10.0 miles
Clouds Scattered Clouds 10000 ft
Heat Index 71 °F
Dew Point 73 °F
Humidity 97%
Rainfall 0.00 in
Snow Depth Not available.
UV 1 out of 12
Pollen 8.10 out of 12
Air Quality Not available.
Flu Activity Not available.
METAR KOPL 011315Z AUTO 00000KT 10SM SCT100 24/23 A3007 RMK AO2 T02360226
Pressure 30.07 in
Visibility 10.0 miles
Clouds Scattered Clouds 10000 ft
Heat Index 71 °F
Dew Point 73 °F
Humidity 97%
Rainfall 0.00 in
Snow Depth Not available.
UV 1 out of 12
Pollen 8.10 out of 12
Air Quality Not available.
Flu Activity Not available.
METAR KOPL 011315Z AUTO 00000KT 10SM SCT100 24/23 A3007 RMK AO2 T02360226
Nowcast | as of 5:51 am CDT on September 1, 2015

Patches of light rain continue to fall across south central Louisiana this morning. Rain is moving to the north.

×

10-Day Weather Forecast

×

Almanac

Astronomy

Sep. 01, 2015 Rise Set
Actual Time
Civil Twilight
Nautical Twilight
Astronomical Twilight
Moon
Length of Visible Light
Length of Day
Tomorrow will be .
, % of the Moon is Illuminated

Today's Extremes

State Highs State Lows

Community

WunderPhotos

Upload Photos

1,851,513 photos uploaded!

WunderBlogs® & News

Nearby

Air Quality

  Air Quality AQ Index Pollutant
Not available.

Snow Depth

Station Depth Elevation

Earthquake Activity

City Distance Mag. Time & Date
Minimum magnitude displayed is 2.5.

Coastal Water Temperatures

Place Temperature

Stations

Nearby Weather Stations

Station Location Temp. Windchill Dew Point Humidity Wind Precip. Elev Updated Type